createdAt,value
2018-06-18T00:02:51.417Z,101490.27
2018-06-18T00:05:55.992Z,101489.27
2018-06-18T00:09:00.522Z,101495.74
2018-06-18T00:12:04.996Z,101502.30
2018-06-18T00:15:09.413Z,101501.78
2018-06-18T00:18:13.835Z,101507.86
2018-06-18T00:21:18.367Z,101506.50
2018-06-18T00:24:22.611Z,101501.22
2018-06-18T00:27:27.411Z,101507.21
2018-06-18T00:30:31.801Z,101508.40
2018-06-18T00:33:36.064Z,101511.78
2018-06-18T00:36:40.420Z,101508.64
2018-06-18T00:39:44.727Z,101511.13
2018-06-18T00:42:49.091Z,101505.80
2018-06-18T00:45:53.396Z,101510.91
2018-06-18T00:48:57.540Z,101499.13
2018-06-18T00:52:02.041Z,101497.76
2018-06-18T00:55:06.380Z,101488.68
2018-06-18T00:58:10.653Z,101481.73
2018-06-18T01:01:14.873Z,101483.91
2018-06-18T01:04:19.186Z,101471.31
2018-06-18T01:07:23.528Z,101464.84
2018-06-18T01:10:27.793Z,101456.97
2018-06-18T01:13:32.151Z,101453.44
2018-06-18T01:16:36.451Z,101459.52
2018-06-18T01:19:40.750Z,101460.77
2018-06-18T01:22:51.275Z,101462.50
2018-06-18T01:25:55.587Z,101455.98
2018-06-18T01:28:59.867Z,101458.06
2018-06-18T01:32:04.165Z,101464.13
2018-06-18T01:35:09.428Z,101472.33
2018-06-18T01:38:13.793Z,101477.02
2018-06-18T01:41:18.226Z,101469.12
2018-06-18T01:44:22.609Z,101465.60
2018-06-18T01:47:26.920Z,101471.61
2018-06-18T01:50:31.284Z,101475.45
2018-06-18T01:53:35.661Z,101481.92
2018-06-18T01:56:40.005Z,101476.27
2018-06-18T01:59:44.409Z,101471.01
2018-06-18T02:02:48.745Z,101471.87
2018-06-18T02:05:53.046Z,101478.38
2018-06-18T02:08:57.233Z,101481.75
2018-06-18T02:12:01.505Z,101469.98
2018-06-18T02:15:05.855Z,101476.47
2018-06-18T02:18:10.116Z,101473.38
2018-06-18T02:21:15.315Z,101468.55
2018-06-18T02:24:19.578Z,101467.61
2018-06-18T02:27:27.946Z,101465.71
2018-06-18T02:30:37.570Z,101468.31
2018-06-18T02:33:47.189Z,101471.77
2018-06-18T02:36:56.759Z,101470.91
2018-06-18T02:40:06.420Z,101474.76
2018-06-18T02:43:10.801Z,101480.75
2018-06-18T02:46:15.104Z,101476.00
2018-06-18T02:49:19.396Z,101474.58
2018-06-18T02:52:23.657Z,101480.16
2018-06-18T02:55:28.167Z,101479.27
2018-06-18T02:58:32.457Z,101476.52
2018-06-18T03:01:36.837Z,101475.66
2018-06-18T03:04:41.149Z,101473.92
2018-06-18T03:07:45.441Z,101474.51
2018-06-18T03:10:49.852Z,101475.38
2018-06-18T03:13:54.198Z,101475.56
2018-06-18T03:16:58.512Z,101480.81
2018-06-18T03:20:08.094Z,101486.55
2018-06-18T03:23:17.629Z,101481.91
2018-06-18T03:26:27.277Z,101476.63
2018-06-18T03:29:33.505Z,101479.22
2018-06-18T03:32:38.020Z,101482.22
2018-06-18T03:35:42.405Z,101480.31
2018-06-18T03:38:46.770Z,101477.16
2018-06-18T03:41:51.871Z,101465.80
2018-06-18T03:45:08.037Z,101468.10
2018-06-18T03:48:13.530Z,101475.45
2018-06-18T03:51:17.867Z,101472.05
2018-06-18T03:54:22.217Z,101468.70
2018-06-18T03:57:26.516Z,101475.34
2018-06-18T04:00:35.028Z,101486.91
2018-06-18T04:03:44.726Z,101486.50
2018-06-18T04:07:07.737Z,101482.03
2018-06-18T04:10:17.452Z,101484.05
2018-06-18T04:13:21.753Z,101489.55
2018-06-18T04:16:26.050Z,101497.31
2018-06-18T04:19:30.761Z,101498.97
2018-06-18T04:22:35.085Z,101503.31
2018-06-18T04:25:39.369Z,101501.05
2018-06-18T04:28:43.627Z,101500.18
2018-06-18T04:31:47.655Z,101501.14
2018-06-18T04:34:57.863Z,101496.36
2018-06-18T04:38:02.222Z,101471.97
2018-06-18T04:41:06.737Z,101462.31
2018-06-18T04:44:16.300Z,101461.92
2018-06-18T04:47:25.937Z,101453.61
2018-06-18T04:50:35.629Z,101456.17
2018-06-18T04:53:40.096Z,101445.59
2018-06-18T04:56:44.530Z,101455.97
2018-06-18T05:00:14.027Z,101451.09
2018-06-18T05:03:18.371Z,101460.36
2018-06-18T05:06:23.129Z,101473.11
2018-06-18T05:10:06.666Z,101470.19
2018-06-18T05:13:11.009Z,101463.42
2018-06-18T05:16:15.369Z,101474.04
2018-06-18T05:19:19.648Z,101472.48
2018-06-18T05:22:24.103Z,101483.97
2018-06-18T05:25:28.615Z,101474.93
2018-06-18T05:28:32.974Z,101472.53
2018-06-18T05:31:37.357Z,101458.81
2018-06-18T05:34:41.894Z,101456.42
2018-06-18T05:37:52.313Z,101454.39
2018-06-18T05:40:57.241Z,101465.88
2018-06-18T05:44:01.573Z,101467.81
2018-06-18T05:47:05.781Z,101470.66
2018-06-18T05:50:10.047Z,101470.59
2018-06-18T05:53:14.205Z,101464.59
2018-06-18T05:56:18.597Z,101456.71
2018-06-18T05:59:22.915Z,101455.38
2018-06-18T06:02:27.231Z,101458.02
2018-06-18T06:05:31.502Z,101458.80
2018-06-18T06:08:35.593Z,101451.80
2018-06-18T06:11:40.037Z,101447.53
2018-06-18T06:14:44.306Z,101452.36
2018-06-18T06:17:48.626Z,101471.18
2018-06-18T06:21:00.772Z,101460.23
2018-06-18T06:24:05.081Z,101459.84
2018-06-18T06:27:09.366Z,101454.65
2018-06-18T06:30:13.731Z,101460.81
2018-06-18T06:33:18.013Z,101454.27
2018-06-18T06:36:26.791Z,101457.80
2018-06-18T06:39:31.119Z,101462.21
2018-06-18T06:42:35.424Z,101457.45
2018-06-18T06:45:39.787Z,101457.89
2018-06-18T06:48:44.142Z,101455.70
2018-06-18T06:51:48.533Z,101456.16
2018-06-18T06:54:52.881Z,101460.98
2018-06-18T06:57:57.188Z,101466.69
2018-06-18T07:01:01.622Z,101465.42
2018-06-18T07:04:05.922Z,101462.85
2018-06-18T07:07:10.243Z,101464.65
2018-06-18T07:10:14.541Z,101469.90
2018-06-18T07:13:18.913Z,101465.45
2018-06-18T07:16:23.322Z,101465.50
2018-06-18T07:19:27.625Z,101472.53
2018-06-18T07:22:31.720Z,101469.90
2018-06-18T07:25:36.063Z,101472.53
2018-06-18T07:28:40.355Z,101470.84
2018-06-18T07:31:44.692Z,101462.08
2018-06-18T07:34:49.107Z,101460.80
2018-06-18T07:37:53.443Z,101467.80
2018-06-18T07:40:57.744Z,101469.56
2018-06-18T07:44:02.104Z,101461.25
2018-06-18T07:47:06.492Z,101459.52
2018-06-18T07:50:10.852Z,101461.72
2018-06-18T07:53:15.158Z,101465.66
2018-06-18T07:56:19.569Z,101461.28
2018-06-18T07:59:23.876Z,101463.47
2018-06-18T08:02:28.344Z,101463.92
2018-06-18T08:05:32.703Z,101471.41
2018-06-18T08:08:36.986Z,101466.59
2018-06-18T08:11:41.619Z,101457.80
2018-06-18T08:14:46.178Z,101451.64
2018-06-18T08:17:50.507Z,101458.25
2018-06-18T08:20:54.855Z,101456.48
2018-06-18T08:23:59.137Z,101454.28
2018-06-18T08:27:03.444Z,101451.63
2018-06-18T08:30:07.806Z,101454.66
2018-06-18T08:33:12.104Z,101457.31
2018-06-18T08:36:16.836Z,101448.53
2018-06-18T08:39:21.039Z,101436.77
2018-06-18T08:42:25.455Z,101432.83
2018-06-18T08:45:29.838Z,101442.45
2018-06-18T08:48:39.454Z,101440.24
2018-06-18T08:51:49.042Z,101436.25
2018-06-18T08:54:58.708Z,101441.95
2018-06-18T08:58:08.252Z,101446.72
2018-06-18T09:01:22.410Z,101441.39
2018-06-18T09:04:31.884Z,101436.67
2018-06-18T09:07:41.537Z,101441.45
2018-06-18T09:10:45.987Z,101446.23
2018-06-18T09:13:50.306Z,101437.42
2018-06-18T09:16:54.716Z,101435.67
2018-06-18T09:19:58.988Z,101433.94
2018-06-18T09:23:03.464Z,101426.48
2018-06-18T09:26:07.859Z,101433.44
2018-06-18T09:29:12.299Z,101439.64
2018-06-18T09:32:16.708Z,101442.25
2018-06-18T09:35:20.905Z,101455.84
2018-06-18T09:38:25.216Z,101447.95
2018-06-18T09:41:29.500Z,101450.16
2018-06-18T09:44:33.902Z,101454.15
2018-06-18T09:47:38.343Z,101459.95
2018-06-18T09:50:48.048Z,101465.71
2018-06-18T09:53:57.618Z,101461.31
2018-06-18T09:57:07.228Z,101460.43
2018-06-18T10:00:34.120Z,101459.11
2018-06-18T10:03:38.494Z,101456.91
2018-06-18T10:06:42.953Z,101452.95
2018-06-18T10:09:47.214Z,101442.81
2018-06-18T10:12:51.532Z,101441.39
2018-06-18T10:15:56.808Z,101439.58
2018-06-18T10:19:01.291Z,101441.69
2018-06-18T10:22:05.932Z,101438.16
2018-06-18T10:25:10.346Z,101443.83
2018-06-18T10:28:14.646Z,101441.67
2018-06-18T10:31:19.034Z,101447.08
2018-06-18T10:34:28.792Z,101444.48
2018-06-18T10:37:38.394Z,101447.47
2018-06-18T10:41:45.880Z,101450.58
2018-06-18T10:44:50.430Z,101454.48
2018-06-18T10:47:54.712Z,101469.06
2018-06-18T10:50:59.032Z,101462.92
2018-06-18T10:54:03.372Z,101468.23
2018-06-18T10:57:07.736Z,101464.23
2018-06-18T11:00:17.392Z,101471.73
2018-06-18T11:03:21.883Z,101464.78
2018-06-18T11:06:31.582Z,101465.25
2018-06-18T11:09:36.096Z,101456.93
2018-06-18T11:12:40.463Z,101459.54
2018-06-18T11:15:44.513Z,101451.65
2018-06-18T11:18:53.943Z,101452.07
2018-06-18T11:22:05.658Z,101446.38
2018-06-18T11:25:15.339Z,101450.81
2018-06-18T11:28:19.695Z,101435.00
2018-06-18T11:31:23.985Z,101437.20
2018-06-18T11:34:28.326Z,101448.16
2018-06-18T11:37:32.725Z,101456.91
2018-06-18T11:40:37.223Z,101458.69
2018-06-18T11:43:41.796Z,101451.20
2018-06-18T11:46:46.128Z,101451.27
2018-06-18T11:49:50.822Z,101450.77
2018-06-18T11:52:55.196Z,101447.70
2018-06-18T11:55:59.668Z,101452.50
2018-06-18T11:59:09.338Z,101455.55
2018-06-18T12:02:19.926Z,101456.91
2018-06-18T12:05:29.585Z,101463.92
2018-06-18T12:08:39.128Z,101463.91
2018-06-18T12:11:44.724Z,101475.28
2018-06-18T12:14:49.044Z,101477.87
2018-06-18T12:17:53.381Z,101474.82
2018-06-18T12:20:57.898Z,101477.45
2018-06-18T12:24:02.224Z,101473.90
2018-06-18T12:27:07.263Z,101474.31
2018-06-18T12:30:11.580Z,101467.35
2018-06-18T12:33:15.852Z,101474.39
2018-06-18T12:36:20.221Z,101475.25
2018-06-18T12:39:24.518Z,101460.37
2018-06-18T12:42:28.822Z,101455.59
2018-06-18T12:45:38.668Z,101450.77
2018-06-18T12:48:48.326Z,101455.14
2018-06-18T12:51:58.017Z,101452.10
2018-06-18T12:55:07.592Z,101449.02
2018-06-18T12:58:11.865Z,101453.84
2018-06-18T13:01:18.943Z,101449.91
2018-06-18T13:04:23.201Z,101449.05
2018-06-18T13:07:27.580Z,101448.14
2018-06-18T13:10:31.994Z,101447.72
2018-06-18T13:13:36.329Z,101443.34
2018-06-18T13:16:40.644Z,101439.82
2018-06-18T13:19:45.329Z,101438.05
2018-06-18T13:22:49.677Z,101448.95
2018-06-18T13:25:54.020Z,101451.58
2018-06-18T13:28:58.338Z,101448.95
2018-06-18T13:32:02.704Z,101455.96
2018-06-18T13:35:07.345Z,101451.16
2018-06-18T13:38:16.857Z,101459.92
2018-06-18T13:41:27.500Z,101455.59
2018-06-18T13:44:37.102Z,101451.66
2018-06-18T13:47:46.685Z,101444.14
2018-06-18T13:50:51.012Z,101441.91
2018-06-18T13:53:55.558Z,101433.98
2018-06-18T13:56:59.967Z,101445.38
2018-06-18T14:00:04.380Z,101443.64
2018-06-18T14:03:08.700Z,101442.34
2018-06-18T14:06:13.636Z,101430.53
2018-06-18T14:09:17.964Z,101440.16
2018-06-18T14:12:22.342Z,101433.66
2018-06-18T14:15:26.677Z,101421.40
2018-06-18T14:18:31.054Z,101426.66
2018-06-18T14:21:35.370Z,101430.99
2018-06-18T14:24:40.286Z,101425.31
2018-06-18T14:27:44.652Z,101416.54
2018-06-18T14:30:54.201Z,101422.64
2018-06-18T14:34:03.775Z,101411.28
2018-06-18T14:37:13.540Z,101413.06
2018-06-18T14:40:19.359Z,101406.52
2018-06-18T14:43:23.544Z,101406.05
2018-06-18T14:46:28.617Z,101400.73
2018-06-18T14:49:34.579Z,101394.15
2018-06-18T14:52:40.268Z,101397.61
2018-06-18T14:55:49.321Z,101401.55
2018-06-18T14:59:07.849Z,101384.86
2018-06-18T15:02:13.070Z,101393.06
2018-06-18T15:05:17.818Z,101384.32
2018-06-18T15:08:22.251Z,101381.17
2018-06-18T15:11:26.642Z,101381.72
2018-06-18T15:14:31.059Z,101371.66
2018-06-18T15:17:35.373Z,101371.69
2018-06-18T15:20:40.701Z,101371.75
2018-06-18T15:23:45.058Z,101385.01
2018-06-18T15:26:49.401Z,101377.55
2018-06-18T15:29:53.693Z,101372.45
2018-06-18T15:32:58.009Z,101373.38
2018-06-18T15:36:02.379Z,101374.27
2018-06-18T15:39:09.116Z,101383.47
2018-06-18T15:42:13.534Z,101376.92
2018-06-18T15:45:18.071Z,101377.31
2018-06-18T15:48:22.372Z,101381.27
2018-06-18T15:51:26.794Z,101383.03
2018-06-18T15:54:31.118Z,101376.88
2018-06-18T15:57:35.510Z,101382.59
2018-06-18T16:00:39.831Z,101385.28
2018-06-18T16:03:44.256Z,101385.75
2018-06-18T16:06:48.551Z,101386.17
2018-06-18T16:09:52.869Z,101383.98
2018-06-18T16:12:57.184Z,101384.88
2018-06-18T16:16:02.682Z,101386.20
2018-06-18T16:19:08.339Z,101388.02
2018-06-18T16:22:13.272Z,101393.30
2018-06-18T16:25:18.579Z,101385.86
2018-06-18T16:28:22.916Z,101394.61
2018-06-18T16:31:27.270Z,101391.50
2018-06-18T16:34:31.546Z,101397.62
2018-06-18T16:37:35.974Z,101395.42
2018-06-18T16:40:40.365Z,101398.83
2018-06-18T16:43:44.755Z,101393.83
2018-06-18T16:46:49.053Z,101399.50
2018-06-18T16:49:53.447Z,101396.38
2018-06-18T16:52:57.752Z,101380.27
2018-06-18T16:56:02.098Z,101392.88
2018-06-18T16:59:06.429Z,101392.32
2018-06-18T17:02:10.770Z,101385.40
2018-06-18T17:05:15.070Z,101385.50
2018-06-18T17:08:19.793Z,101385.58
2018-06-18T17:11:24.070Z,101385.16
2018-06-18T17:14:28.697Z,101384.56
2018-06-18T17:17:32.733Z,101391.00
2018-06-18T17:20:37.510Z,101385.42
2018-06-18T17:23:42.118Z,101388.12
2018-06-18T17:26:46.558Z,101392.68
2018-06-18T17:29:51.207Z,101388.30
2018-06-18T17:32:55.570Z,101393.20
2018-06-18T17:35:59.985Z,101389.74
2018-06-18T17:39:08.219Z,101388.83
2018-06-18T17:42:13.001Z,101386.66
2018-06-18T17:45:17.366Z,101386.27
2018-06-18T17:48:21.792Z,101394.66
2018-06-18T17:51:26.063Z,101393.36
2018-06-18T17:54:30.674Z,101391.17
2018-06-18T17:57:35.040Z,101388.55
2018-06-18T18:00:39.363Z,101392.52
2018-06-18T18:03:43.976Z,101391.65
2018-06-18T18:06:48.378Z,101385.48
2018-06-18T18:09:52.824Z,101394.70
2018-06-18T18:12:57.307Z,101396.47
2018-06-18T18:16:01.718Z,101399.13
2018-06-18T18:19:06.389Z,101405.69
2018-06-18T18:22:10.834Z,101391.65
2018-06-18T18:25:15.153Z,101396.02
2018-06-18T18:28:19.663Z,101391.20
2018-06-18T18:31:24.079Z,101387.70
2018-06-18T18:34:28.868Z,101387.70
2018-06-18T18:37:33.242Z,101392.53
2018-06-18T18:40:37.894Z,101388.16
2018-06-18T18:43:42.214Z,101382.02
2018-06-18T18:46:46.973Z,101388.59
2018-06-18T18:49:51.405Z,101380.28
2018-06-18T18:52:55.872Z,101379.83
2018-06-18T18:56:17.274Z,101380.70
2018-06-18T18:59:29.854Z,101380.70
2018-06-18T19:02:34.295Z,101374.56
2018-06-18T19:05:38.632Z,101371.95
2018-06-18T19:08:42.957Z,101382.44
2018-06-18T19:11:47.392Z,101389.87
2018-06-18T19:14:51.718Z,101376.30
2018-06-18T19:17:56.076Z,101389.87
2018-06-18T19:21:04.645Z,101395.98
2018-06-18T19:24:08.981Z,101396.42
2018-06-18T19:27:13.331Z,101392.47
2018-06-18T19:30:17.780Z,101391.16
2018-06-18T19:33:30.156Z,101390.27
2018-06-18T19:36:34.597Z,101386.78
2018-06-18T19:39:44.261Z,101386.27
2018-06-18T19:42:48.595Z,101383.19
2018-06-18T19:45:57.490Z,101384.48
2018-06-18T19:49:08.473Z,101385.73
2018-06-18T19:52:13.007Z,101388.34
2018-06-18T19:55:25.996Z,101383.92
2018-06-18T19:58:30.447Z,101390.91
2018-06-18T20:01:34.941Z,101389.99
2018-06-18T20:04:39.288Z,101395.64
2018-06-18T20:08:02.598Z,101399.97
2018-06-18T20:11:06.926Z,101394.30
2018-06-18T20:14:11.304Z,101395.56
2018-06-18T20:17:15.801Z,101402.09
2018-06-18T20:20:20.145Z,101400.31
2018-06-18T20:23:26.692Z,101394.16
2018-06-18T20:26:30.893Z,101408.97
2018-06-18T20:29:35.439Z,101420.28
2018-06-18T20:32:40.102Z,101422.08
2018-06-18T20:35:57.554Z,101427.81
2018-06-18T20:39:01.931Z,101425.65
2018-06-18T20:42:06.822Z,101423.98
2018-06-18T20:45:11.231Z,101422.70
2018-06-18T20:48:15.844Z,101418.34
2018-06-18T20:51:20.269Z,101417.92
2018-06-18T20:54:24.667Z,101423.16
2018-06-18T20:57:29.396Z,101418.79
2018-06-18T21:00:33.815Z,101427.97
2018-06-18T21:03:38.675Z,101434.98
2018-06-18T21:06:43.068Z,101421.45
2018-06-18T21:09:47.649Z,101415.34
2018-06-18T21:12:51.987Z,101423.22
2018-06-18T21:15:56.713Z,101430.18
2018-06-18T21:19:01.111Z,101424.52
2018-06-18T21:22:05.692Z,101417.53
2018-06-18T21:25:09.961Z,101419.69
2018-06-18T21:28:14.371Z,101418.83
2018-06-18T21:31:18.858Z,101409.64
2018-06-18T21:34:23.183Z,101424.89
2018-06-18T21:37:27.889Z,101421.44
2018-06-18T21:40:32.167Z,101429.72
2018-06-18T21:43:36.609Z,101421.40
2018-06-18T21:46:40.969Z,101419.20
2018-06-18T21:49:45.400Z,101433.66
2018-06-18T21:52:49.790Z,101425.37
2018-06-18T21:55:54.109Z,101417.04
2018-06-18T21:58:58.862Z,101418.78
2018-06-18T22:02:03.195Z,101424.87
2018-06-18T22:05:08.046Z,101418.75
2018-06-18T22:08:14.569Z,101423.51
2018-06-18T22:11:18.968Z,101423.52
2018-06-18T22:14:24.123Z,101418.73
2018-06-18T22:17:28.508Z,101419.63
2018-06-18T22:20:33.123Z,101420.05
2018-06-18T22:23:37.435Z,101406.47
2018-06-18T22:26:41.564Z,101410.81
2018-06-18T22:29:45.926Z,101391.56
2018-06-18T22:32:50.428Z,101404.62
2018-06-18T22:35:54.958Z,101404.06
2018-06-18T22:38:59.348Z,101406.16
2018-06-18T22:42:03.704Z,101403.05
2018-06-18T22:45:11.100Z,101397.77
2018-06-18T22:48:15.520Z,101416.05
2018-06-18T22:51:19.917Z,101405.63
2018-06-18T22:54:24.267Z,101404.27
2018-06-18T22:57:28.625Z,101406.92
2018-06-18T23:00:33.122Z,101406.95
2018-06-18T23:03:37.584Z,101415.72
2018-06-18T23:06:41.988Z,101415.74
2018-06-18T23:09:46.368Z,101407.02
2018-06-18T23:12:50.729Z,101408.73
2018-06-18T23:15:55.093Z,101419.22
2018-06-18T23:18:59.521Z,101405.22
2018-06-18T23:22:04.080Z,101408.27
2018-06-18T23:25:08.926Z,101409.56
2018-06-18T23:28:13.933Z,101398.70
2018-06-18T23:31:18.228Z,101397.38
2018-06-18T23:34:22.495Z,101404.83
2018-06-18T23:37:26.845Z,101413.59
2018-06-18T23:40:31.172Z,101409.24
2018-06-18T23:43:35.712Z,101407.91
2018-06-18T23:46:40.005Z,101407.45
2018-06-18T23:49:44.497Z,101400.45
2018-06-18T23:52:48.843Z,101417.03
2018-06-18T23:55:53.264Z,101412.64
2018-06-18T23:58:57.621Z,101408.62
